createdAt,value
2023-02-28T00:01:06.204Z,1.33
2023-02-28T00:02:42.408Z,1.31
2023-02-28T00:04:14.479Z,1.30
2023-02-28T00:05:46.529Z,1.29
2023-02-28T00:07:18.674Z,1.26
2023-02-28T00:08:52.239Z,1.24
2023-02-28T00:10:27.671Z,1.21
2023-02-28T00:12:04.768Z,1.23
2023-02-28T00:13:41.037Z,1.19
2023-02-28T00:15:15.101Z,1.16
2023-02-28T00:16:47.172Z,1.16
2023-02-28T00:18:19.242Z,1.15
2023-02-28T00:19:51.987Z,1.11
2023-02-28T00:21:26.557Z,1.07
2023-02-28T00:23:00.900Z,1.07
2023-02-28T00:24:32.947Z,1.04
2023-02-28T00:26:05.343Z,1.05
2023-02-28T00:27:38.728Z,1.06
2023-02-28T00:29:11.366Z,1.09
2023-02-28T00:30:43.845Z,1.06
2023-02-28T00:32:15.956Z,1.09
2023-02-28T00:33:47.868Z,1.07
2023-02-28T00:35:20.359Z,1.04
2023-02-28T00:36:52.639Z,1.04
2023-02-28T00:38:36.979Z,1.01
2023-02-28T00:40:21.915Z,0.98
2023-02-28T00:42:40.699Z,0.96
2023-02-28T00:44:15.387Z,0.92
2023-02-28T00:45:48.705Z,0.94
2023-02-28T00:47:20.709Z,0.91
2023-02-28T00:48:55.401Z,0.93
2023-02-28T00:50:27.404Z,0.91
2023-02-28T00:51:59.387Z,0.93
2023-02-28T00:53:54.159Z,0.90
2023-02-28T00:55:26.365Z,0.86
2023-02-28T00:56:58.576Z,0.86
2023-02-28T00:58:30.731Z,0.82
2023-02-28T01:00:04.547Z,0.82
2023-02-28T01:01:36.644Z,0.83
2023-02-28T01:03:08.638Z,0.81
2023-02-28T01:04:40.747Z,0.80
2023-02-28T01:06:12.668Z,0.78
2023-02-28T01:07:44.595Z,0.76
2023-02-28T01:09:16.478Z,0.76
2023-02-28T01:10:48.929Z,0.76
2023-02-28T01:12:20.883Z,0.75
2023-02-28T01:13:53.105Z,0.74
2023-02-28T01:15:25.134Z,0.70
2023-02-28T01:16:57.235Z,0.71
2023-02-28T01:18:31.864Z,0.71
2023-02-28T01:20:04.061Z,0.74
2023-02-28T01:21:36.836Z,0.69
2023-02-28T01:23:08.761Z,0.67
2023-02-28T01:24:40.877Z,0.68
2023-02-28T01:26:18.023Z,0.62
2023-02-28T01:27:50.056Z,0.60
2023-02-28T01:29:21.954Z,0.57
2023-02-28T01:30:53.959Z,0.54
2023-02-28T01:32:26.128Z,0.54
2023-02-28T01:33:58.136Z,0.53
2023-02-28T01:35:35.350Z,0.55
2023-02-28T01:37:07.494Z,0.52
2023-02-28T01:38:39.724Z,0.52
2023-02-28T01:40:12.595Z,0.54
2023-02-28T01:41:44.556Z,0.52
2023-02-28T01:43:25.731Z,0.57
2023-02-28T01:45:04.325Z,0.58
2023-02-28T01:46:37.636Z,0.60
2023-02-28T01:48:13.904Z,0.62
2023-02-28T01:49:50.011Z,0.67
2023-02-28T01:51:51.984Z,0.66
2023-02-28T01:53:29.774Z,0.63
2023-02-28T01:55:03.976Z,0.60
2023-02-28T01:56:37.829Z,0.59
2023-02-28T01:58:12.716Z,0.61
2023-02-28T01:59:59.755Z,0.59
2023-02-28T02:01:32.481Z,0.61
2023-02-28T02:03:10.445Z,0.58
2023-02-28T02:05:08.975Z,0.56
2023-02-28T02:06:45.870Z,0.56
2023-02-28T02:08:23.249Z,0.48
2023-02-28T02:10:18.642Z,0.48
2023-02-28T02:11:50.591Z,0.45
2023-02-28T02:13:26.240Z,0.47
2023-02-28T02:15:14.712Z,0.39
2023-02-28T02:16:56.845Z,0.34
2023-02-28T02:18:39.857Z,0.28
2023-02-28T02:20:36.803Z,0.27
2023-02-28T02:22:27.511Z,0.24
2023-02-28T02:24:22.339Z,0.24
2023-02-28T02:26:02.906Z,0.26
2023-02-28T02:27:53.438Z,0.26
2023-02-28T02:30:05.824Z,0.22
2023-02-28T02:32:01.668Z,0.26
2023-02-28T02:33:38.562Z,0.20
2023-02-28T02:35:18.933Z,0.20
2023-02-28T02:36:57.128Z,0.20
2023-02-28T02:38:49.661Z,0.19
2023-02-28T02:40:24.083Z,0.19
2023-02-28T02:42:00.662Z,0.21
2023-02-28T02:43:42.325Z,0.20
2023-02-28T02:45:19.352Z,0.22
2023-02-28T02:46:56.165Z,0.20
2023-02-28T02:48:31.653Z,0.24
2023-02-28T02:50:06.893Z,0.24
2023-02-28T02:51:39.652Z,0.25
2023-02-28T02:53:12.836Z,0.26
2023-02-28T02:54:47.387Z,0.26
2023-02-28T02:56:26.083Z,0.28
2023-02-28T02:58:02.556Z,0.28
2023-02-28T02:59:36.949Z,0.29
2023-02-28T03:01:11.791Z,0.30
2023-02-28T03:02:44.035Z,0.30
2023-02-28T03:04:20.188Z,0.30
2023-02-28T03:05:52.697Z,0.25
2023-02-28T03:07:24.542Z,0.26
2023-02-28T03:08:56.883Z,0.25
2023-02-28T03:10:47.393Z,0.22
2023-02-28T03:12:25.208Z,0.17
2023-02-28T03:14:30.275Z,0.22
2023-02-28T03:16:35.433Z,0.15
2023-02-28T03:18:12.998Z,0.12
2023-02-28T03:19:54.300Z,0.09
2023-02-28T03:21:54.662Z,0.07
2023-02-28T03:23:40.419Z,0.04
2023-02-28T03:25:41.024Z,0.01
2023-02-28T03:27:20.424Z,-0.01
2023-02-28T03:29:07.978Z,0.00
2023-02-28T03:30:48.070Z,-0.04
2023-02-28T03:32:27.190Z,-0.06
2023-02-28T03:34:06.159Z,-0.07
2023-02-28T03:35:49.452Z,-0.04
2023-02-28T03:37:21.998Z,-0.05
2023-02-28T03:39:06.729Z,-0.11
2023-02-28T03:40:39.280Z,-0.15
2023-02-28T03:42:15.840Z,-0.17
2023-02-28T03:43:56.923Z,-0.19
2023-02-28T03:45:35.221Z,-0.19
2023-02-28T03:47:22.049Z,-0.25
2023-02-28T03:49:18.240Z,-0.28
2023-02-28T03:50:56.275Z,-0.37
2023-02-28T03:52:31.227Z,-0.38
2023-02-28T03:54:08.683Z,-0.42
2023-02-28T03:55:45.304Z,-0.39
2023-02-28T03:57:38.501Z,-0.42
2023-02-28T03:59:16.126Z,-0.42
2023-02-28T04:00:52.268Z,-0.46
2023-02-28T04:02:24.257Z,-0.48
2023-02-28T04:03:56.214Z,-0.49
2023-02-28T04:05:28.981Z,-0.50
2023-02-28T04:07:09.211Z,-0.47
2023-02-28T04:08:41.462Z,-0.48
2023-02-28T04:10:14.134Z,-0.50
2023-02-28T04:11:53.634Z,-0.48
2023-02-28T04:13:25.572Z,-0.50
2023-02-28T04:14:57.523Z,-0.52
2023-02-28T04:16:35.439Z,-0.50
2023-02-28T04:18:07.961Z,-0.51
2023-02-28T04:19:40.362Z,-0.50
2023-02-28T04:21:12.874Z,-0.52
2023-02-28T04:22:44.804Z,-0.51
2023-02-28T04:24:19.556Z,-0.53
2023-02-28T04:25:52.408Z,-0.55
2023-02-28T04:27:24.243Z,-0.53
2023-02-28T04:28:56.172Z,-0.55
2023-02-28T04:30:28.172Z,-0.60
2023-02-28T04:32:01.154Z,-0.65
2023-02-28T04:33:33.864Z,-0.69
2023-02-28T04:35:06.408Z,-0.68
2023-02-28T04:36:38.401Z,-0.71
2023-02-28T04:38:10.372Z,-0.74
2023-02-28T04:39:42.957Z,-0.74
2023-02-28T04:41:14.952Z,-0.76
2023-02-28T04:42:46.949Z,-0.75
2023-02-28T04:44:18.980Z,-0.76
2023-02-28T04:45:51.351Z,-0.76
2023-02-28T04:47:23.297Z,-0.73
2023-02-28T04:48:55.731Z,-0.72
2023-02-28T04:50:27.727Z,-0.69
2023-02-28T04:51:59.667Z,-0.68
2023-02-28T04:53:31.912Z,-0.63
2023-02-28T04:55:04.306Z,-0.60
2023-02-28T04:56:36.710Z,-0.67
2023-02-28T04:58:10.041Z,-0.69
2023-02-28T04:59:42.146Z,-0.73
2023-02-28T05:01:23.085Z,-0.74
2023-02-28T05:02:54.961Z,-0.76
2023-02-28T05:04:27.023Z,-0.79
2023-02-28T05:05:58.977Z,-0.81
2023-02-28T05:07:30.885Z,-0.81
2023-02-28T05:09:02.859Z,-0.83
2023-02-28T05:10:34.861Z,-0.84
2023-02-28T05:12:07.074Z,-0.85
2023-02-28T05:13:39.024Z,-0.88
2023-02-28T05:15:14.713Z,-0.85
2023-02-28T05:16:46.718Z,-0.89
2023-02-28T05:18:18.674Z,-0.85
2023-02-28T05:19:50.680Z,-0.91
2023-02-28T05:21:34.515Z,-0.90
2023-02-28T05:23:06.542Z,-0.84
2023-02-28T05:24:38.526Z,-0.86
2023-02-28T05:26:10.533Z,-0.89
2023-02-28T05:27:42.715Z,-0.93
2023-02-28T05:29:14.946Z,-0.94
2023-02-28T05:30:51.683Z,-0.93
2023-02-28T05:32:24.125Z,-0.94
2023-02-28T05:33:56.289Z,-0.92
2023-02-28T05:35:28.397Z,-0.94
2023-02-28T05:37:00.378Z,-0.96
2023-02-28T05:38:32.750Z,-0.98
2023-02-28T05:40:11.545Z,-0.99
2023-02-28T05:41:44.348Z,-1.03
2023-02-28T05:43:16.436Z,-1.01
2023-02-28T05:44:48.492Z,-1.06
2023-02-28T05:46:23.167Z,-1.07
2023-02-28T05:47:55.891Z,-1.10
2023-02-28T05:49:27.964Z,-1.11
2023-02-28T05:51:00.049Z,-1.10
2023-02-28T05:52:32.046Z,-1.14
2023-02-28T05:54:04.333Z,-1.17
2023-02-28T05:55:37.184Z,-1.18
2023-02-28T05:57:18.907Z,-1.12
2023-02-28T05:58:56.127Z,-1.16
2023-02-28T06:00:28.986Z,-1.16
2023-02-28T06:02:01.072Z,-1.11
2023-02-28T06:03:33.048Z,-1.15
2023-02-28T06:05:05.422Z,-1.17
2023-02-28T06:06:38.145Z,-1.16
2023-02-28T06:08:10.249Z,-1.16
2023-02-28T06:09:42.233Z,-1.16
2023-02-28T06:11:14.313Z,-1.15
2023-02-28T06:12:46.521Z,-1.12
2023-02-28T06:14:20.161Z,-1.11
2023-02-28T06:15:52.116Z,-1.08
2023-02-28T06:17:24.120Z,-1.10
2023-02-28T06:18:58.367Z,-1.13
2023-02-28T06:20:30.572Z,-1.11
2023-02-28T06:22:02.588Z,-1.10
2023-02-28T06:23:35.891Z,-1.09
2023-02-28T06:25:08.555Z,-1.07
2023-02-28T06:26:42.757Z,-1.05
2023-02-28T06:28:18.934Z,-1.02
2023-02-28T06:30:01.417Z,-1.00
2023-02-28T06:31:40.881Z,-0.99
2023-02-28T06:33:13.123Z,-0.97
2023-02-28T06:34:45.351Z,-0.98
2023-02-28T06:36:46.110Z,-0.94
2023-02-28T06:38:21.294Z,-0.90
2023-02-28T06:39:57.166Z,-0.87
2023-02-28T06:41:30.485Z,-0.87
2023-02-28T06:43:05.228Z,-0.85
2023-02-28T06:44:37.380Z,-0.84
2023-02-28T06:46:12.087Z,-0.86
2023-02-28T06:47:46.435Z,-0.85
2023-02-28T06:49:24.553Z,-0.81
2023-02-28T06:51:11.052Z,-0.79
2023-02-28T06:52:46.675Z,-0.77
2023-02-28T06:54:27.469Z,-0.74
2023-02-28T06:56:05.334Z,-0.71
2023-02-28T06:57:52.905Z,-0.69
2023-02-28T06:59:44.562Z,-0.66
2023-02-28T07:01:26.720Z,-0.65
2023-02-28T07:03:03.049Z,-0.63
2023-02-28T07:04:47.768Z,-0.60
2023-02-28T07:06:32.716Z,-0.58
2023-02-28T07:08:07.542Z,-0.59
2023-02-28T07:09:39.749Z,-0.57
2023-02-28T07:11:14.468Z,-0.55
2023-02-28T07:13:16.219Z,-0.53
2023-02-28T07:14:52.830Z,-0.52
2023-02-28T07:16:26.149Z,-0.54
2023-02-28T07:17:58.281Z,-0.50
2023-02-28T07:19:32.999Z,-0.50
2023-02-28T07:21:18.769Z,-0.50
2023-02-28T07:22:58.466Z,-0.51
2023-02-28T07:24:36.216Z,-0.49
2023-02-28T07:28:23.924Z,-0.38
2023-02-28T07:31:01.080Z,-0.38
2023-02-28T07:32:59.387Z,-0.36
2023-02-28T07:34:46.996Z,-0.36
2023-02-28T07:36:40.068Z,-0.35
2023-02-28T07:38:17.512Z,-0.32
2023-02-28T07:39:57.012Z,-0.29
2023-02-28T07:41:58.075Z,-0.26
2023-02-28T07:43:59.300Z,-0.22
2023-02-28T07:46:17.625Z,-0.19
2023-02-28T07:48:00.097Z,-0.18
2023-02-28T07:57:12.635Z,-0.03
2023-02-28T07:58:44.885Z,-0.02
2023-02-28T08:00:22.946Z,0.01
2023-02-28T08:01:59.119Z,0.06
2023-02-28T08:03:31.199Z,0.08
2023-02-28T08:05:03.785Z,0.11
2023-02-28T08:06:36.413Z,0.14
2023-02-28T08:08:10.820Z,0.19
2023-02-28T08:09:43.835Z,0.26
2023-02-28T08:11:20.873Z,0.33
2023-02-28T08:13:02.358Z,0.39
2023-02-28T08:14:34.757Z,0.45
2023-02-28T08:16:07.214Z,0.48
2023-02-28T08:17:39.294Z,0.53
2023-02-28T08:19:11.414Z,0.62
2023-02-28T08:20:43.459Z,0.73
2023-02-28T08:22:15.633Z,0.82
2023-02-28T08:23:49.833Z,0.92
2023-02-28T08:25:22.306Z,1.06
2023-02-28T08:26:54.578Z,1.17
2023-02-28T08:28:27.564Z,1.33
2023-02-28T08:29:59.818Z,1.48
2023-02-28T08:31:33.987Z,1.62
2023-02-28T08:33:06.154Z,1.83
2023-02-28T08:34:40.843Z,1.95
2023-02-28T08:36:13.480Z,2.07
2023-02-28T08:37:46.812Z,2.21
2023-02-28T08:39:21.454Z,2.39
2023-02-28T08:41:00.521Z,2.55
2023-02-28T08:42:33.830Z,2.67
2023-02-28T08:44:07.192Z,2.73
2023-02-28T08:45:39.421Z,2.89
2023-02-28T08:47:13.582Z,3.02
2023-02-28T08:48:45.748Z,3.06
2023-02-28T08:50:18.907Z,3.15
2023-02-28T08:51:58.281Z,3.25
2023-02-28T08:53:33.238Z,3.39
2023-02-28T08:55:05.782Z,3.53
2023-02-28T08:56:40.678Z,3.61
2023-02-28T08:58:12.730Z,3.58
2023-02-28T08:59:47.460Z,3.71
2023-02-28T09:01:29.955Z,3.70
2023-02-28T09:03:05.302Z,3.81
2023-02-28T09:04:38.605Z,3.88
2023-02-28T09:06:14.894Z,3.86
2023-02-28T09:07:46.843Z,4.05
2023-02-28T09:09:18.853Z,4.06
2023-02-28T09:10:53.852Z,4.13
2023-02-28T09:12:27.579Z,4.12
2023-02-28T09:14:08.439Z,4.19
2023-02-28T09:15:40.820Z,4.20
2023-02-28T09:17:12.872Z,4.17
2023-02-28T09:18:47.892Z,4.23
2023-02-28T09:20:22.328Z,4.43
2023-02-28T09:21:54.442Z,4.57
2023-02-28T09:23:29.106Z,4.57
2023-02-28T09:25:18.565Z,4.72
2023-02-28T09:27:08.399Z,4.99
2023-02-28T09:28:43.057Z,5.19
2023-02-28T09:30:16.880Z,5.28
2023-02-28T09:31:59.602Z,5.25
2023-02-28T09:33:32.218Z,5.33
2023-02-28T09:37:39.932Z,5.33
2023-02-28T09:39:15.363Z,5.30
2023-02-28T09:42:09.341Z,5.21
2023-02-28T09:59:25.794Z,5.46
2023-02-28T10:01:45.422Z,5.57
2023-02-28T10:05:08.221Z,5.44
2023-02-28T10:07:35.875Z,5.82
2023-02-28T10:09:23.804Z,6.12
2023-02-28T10:09:59.423Z,5.64
2023-02-28T10:11:07.663Z,6.23
2023-02-28T10:12:42.154Z,6.13
2023-02-28T10:14:23.245Z,6.23
2023-02-28T10:16:02.302Z,6.46
2023-02-28T10:18:08.799Z,6.22
2023-02-28T10:19:48.779Z,6.01
2023-02-28T10:21:50.195Z,6.00
2023-02-28T10:23:28.956Z,6.11
2023-02-28T10:25:16.708Z,6.31
2023-02-28T10:26:52.325Z,6.39
2023-02-28T10:28:26.343Z,6.30
2023-02-28T10:30:02.841Z,6.06
2023-02-28T10:31:35.018Z,5.90
2023-02-28T10:33:07.313Z,5.97
2023-02-28T10:35:12.419Z,6.17
2023-02-28T10:36:45.046Z,6.22
2023-02-28T10:38:21.699Z,6.24
2023-02-28T10:39:53.818Z,6.18
2023-02-28T10:41:30.365Z,6.38
2023-02-28T10:43:30.838Z,6.50
2023-02-28T10:45:19.526Z,6.48
2023-02-28T10:46:54.172Z,6.46
2023-02-28T10:48:41.761Z,6.11
2023-02-28T10:50:55.529Z,5.91
2023-02-28T10:52:43.650Z,5.72
2023-02-28T10:54:22.535Z,5.56
2023-02-28T10:56:26.375Z,5.33
2023-02-28T10:58:07.026Z,5.28
2023-02-28T10:59:42.463Z,5.18
2023-02-28T11:01:25.451Z,5.24
2023-02-28T11:03:22.210Z,5.21
2023-02-28T11:04:54.241Z,5.14
2023-02-28T11:06:34.653Z,5.00
2023-02-28T11:08:06.785Z,5.00
2023-02-28T11:09:44.995Z,4.98
2023-02-28T11:11:19.144Z,4.91
2023-02-28T11:16:05.507Z,5.38
2023-02-28T11:18:02.154Z,5.74
2023-02-28T11:19:41.616Z,5.80
2023-02-28T11:21:46.846Z,6.03
2023-02-28T11:23:26.086Z,6.20
2023-02-28T11:25:19.294Z,6.17
2023-02-28T11:27:00.978Z,5.95
2023-02-28T11:28:50.477Z,5.90
2023-02-28T11:30:42.609Z,6.04
2023-02-28T11:32:44.789Z,6.10
2023-02-28T11:34:40.217Z,6.28
2023-02-28T11:36:32.308Z,6.54
2023-02-28T11:38:14.119Z,6.45
2023-02-28T11:39:49.947Z,6.55
2023-02-28T11:41:27.076Z,6.48
2023-02-28T11:43:20.196Z,6.49
2023-02-28T11:45:01.281Z,6.59
2023-02-28T11:49:19.357Z,6.43
2023-02-28T11:51:40.875Z,6.50
2023-02-28T11:53:46.151Z,6.52
2023-02-28T11:58:40.073Z,6.37
2023-02-28T12:00:46.588Z,6.58
2023-02-28T12:03:00.662Z,6.39
2023-02-28T12:05:24.611Z,6.54
2023-02-28T12:07:02.951Z,6.62
2023-02-28T12:08:59.662Z,6.78
2023-02-28T12:10:42.024Z,6.83
2023-02-28T12:12:36.696Z,6.97
2023-02-28T12:14:24.691Z,7.07
2023-02-28T12:16:03.216Z,6.88
2023-02-28T12:17:50.712Z,6.84
2023-02-28T12:19:56.462Z,6.72
2023-02-28T12:21:54.598Z,6.64
2023-02-28T12:28:53.051Z,6.92
2023-02-28T12:30:36.012Z,7.06
2023-02-28T12:32:41.185Z,6.93
2023-02-28T12:35:34.494Z,6.91
2023-02-28T12:36:51.102Z,7.00
2023-02-28T12:39:02.847Z,7.00
2023-02-28T12:40:52.307Z,7.07
2023-02-28T12:45:26.999Z,6.95
2023-02-28T12:47:50.850Z,6.96
2023-02-28T12:50:03.452Z,7.06
2023-02-28T12:52:01.816Z,7.05
2023-02-28T15:22:18.175Z,7.39
2023-02-28T15:24:12.445Z,7.38
2023-02-28T15:25:44.832Z,7.37
2023-02-28T15:27:33.543Z,7.26
2023-02-28T15:29:18.916Z,7.26
2023-02-28T15:31:00.364Z,7.13
2023-02-28T15:32:42.914Z,7.02
2023-02-28T15:34:40.635Z,6.99
2023-02-28T15:36:24.562Z,6.84
2023-02-28T15:38:24.976Z,6.91
2023-02-28T15:40:00.681Z,6.90
2023-02-28T15:41:43.542Z,6.88
2023-02-28T15:43:18.610Z,6.93
2023-02-28T15:44:50.833Z,6.94
2023-02-28T15:46:25.244Z,6.78
2023-02-28T15:48:13.732Z,6.73
2023-02-28T15:49:54.344Z,6.75
2023-02-28T15:51:49.429Z,6.68
2023-02-28T15:53:32.816Z,6.69
2023-02-28T15:55:13.802Z,6.67
2023-02-28T15:56:47.584Z,6.64
2023-02-28T15:58:20.583Z,6.62
2023-02-28T15:59:56.799Z,6.54
2023-02-28T16:01:37.199Z,6.53
2023-02-28T16:03:28.983Z,6.50
2023-02-28T16:05:20.253Z,6.45
2023-02-28T16:07:02.308Z,6.41
2023-02-28T16:08:34.447Z,6.37
2023-02-28T16:10:08.137Z,6.28
2023-02-28T16:11:46.469Z,6.27
2023-02-28T16:13:18.831Z,6.22
2023-02-28T16:14:54.402Z,6.26
2023-02-28T16:16:27.491Z,6.18
2023-02-28T16:18:01.069Z,6.12
2023-02-28T16:19:36.557Z,6.15
2023-02-28T16:21:24.066Z,6.15
2023-02-28T16:23:02.592Z,6.15
2023-02-28T16:24:35.166Z,6.07
2023-02-28T16:26:07.944Z,5.99
2023-02-28T16:27:58.713Z,5.96
2023-02-28T16:29:33.560Z,5.97
2023-02-28T16:31:09.361Z,5.90
2023-02-28T16:32:46.899Z,5.85
2023-02-28T16:34:18.957Z,5.78
2023-02-28T16:35:51.169Z,5.72
2023-02-28T16:37:23.187Z,5.69
2023-02-28T16:38:58.431Z,5.68
2023-02-28T16:40:35.619Z,5.71
2023-02-28T16:42:09.851Z,5.69
2023-02-28T16:43:50.370Z,5.71
2023-02-28T16:45:27.533Z,5.68
2023-02-28T16:47:03.906Z,5.64
2023-02-28T16:48:36.270Z,5.58
2023-02-28T16:50:17.414Z,5.64
2023-02-28T16:51:49.432Z,5.54
2023-02-28T16:53:22.249Z,5.50
2023-02-28T16:54:55.760Z,5.56
2023-02-28T16:56:27.907Z,5.58
2023-02-28T16:58:01.422Z,5.50
2023-02-28T16:59:33.781Z,5.44
2023-02-28T17:01:08.336Z,5.45
2023-02-28T17:02:45.422Z,5.39
2023-02-28T17:04:17.738Z,5.35
2023-02-28T17:05:50.028Z,5.35
2023-02-28T17:07:22.155Z,5.31
2023-02-28T17:08:57.515Z,5.31
2023-02-28T17:10:30.676Z,5.33
2023-02-28T17:12:02.895Z,5.31
2023-02-28T17:13:35.719Z,5.30
2023-02-28T17:15:07.976Z,5.33
2023-02-28T17:16:44.175Z,5.25
2023-02-28T17:18:20.125Z,5.26
2023-02-28T17:19:52.326Z,5.26
2023-02-28T17:21:24.477Z,5.19
2023-02-28T17:22:57.714Z,5.20
2023-02-28T17:24:30.803Z,5.17
2023-02-28T17:26:06.843Z,5.13
2023-02-28T17:27:39.245Z,5.13
2023-02-28T17:29:23.064Z,5.13
2023-02-28T17:31:00.629Z,5.14
2023-02-28T17:32:32.694Z,5.10
2023-02-28T17:34:07.260Z,5.08
2023-02-28T17:35:39.306Z,5.03
2023-02-28T17:37:16.356Z,5.02
2023-02-28T17:39:07.505Z,4.98
2023-02-28T17:40:42.176Z,4.93
2023-02-28T17:42:14.441Z,4.91
2023-02-28T17:43:46.488Z,4.93
2023-02-28T17:45:25.019Z,4.92
2023-02-28T17:47:00.304Z,4.83
2023-02-28T17:48:38.241Z,4.87
2023-02-28T17:50:19.707Z,4.83
2023-02-28T17:51:51.947Z,4.74
2023-02-28T17:53:46.671Z,4.75
2023-02-28T17:57:29.135Z,4.71
2023-02-28T17:59:03.632Z,4.69
2023-02-28T18:00:39.445Z,4.67
2023-02-28T18:02:13.954Z,4.69
2023-02-28T18:03:46.171Z,4.70
2023-02-28T18:05:18.588Z,4.67
2023-02-28T18:06:53.562Z,4.65
2023-02-28T18:08:25.619Z,4.60
2023-02-28T18:09:57.556Z,4.62
2023-02-28T18:11:42.479Z,4.62
2023-02-28T18:13:14.440Z,4.61
2023-02-28T18:14:48.822Z,4.55
2023-02-28T18:16:23.688Z,4.49
2023-02-28T18:17:55.799Z,4.49
2023-02-28T18:19:30.431Z,4.49
2023-02-28T18:21:04.485Z,4.49
2023-02-28T18:22:37.901Z,4.47
2023-02-28T18:24:16.923Z,4.43
2023-02-28T18:25:52.572Z,4.37
2023-02-28T18:27:24.837Z,4.37
2023-02-28T18:29:04.023Z,4.33
2023-02-28T18:33:38.829Z,4.28
2023-02-28T18:36:07.190Z,4.28
2023-02-28T18:38:02.450Z,4.16
2023-02-28T18:39:50.936Z,4.16
2023-02-28T18:41:46.640Z,4.14
2023-02-28T18:43:36.277Z,4.05
2023-02-28T18:45:19.498Z,4.03
2023-02-28T18:46:51.647Z,4.00
2023-02-28T18:48:24.226Z,3.99
2023-02-28T18:49:56.317Z,3.95
2023-02-28T18:51:32.414Z,3.90
2023-02-28T18:53:06.894Z,3.85
2023-02-28T18:54:45.641Z,3.86
2023-02-28T18:56:26.018Z,3.83
2023-02-28T18:58:00.887Z,3.82
2023-02-28T18:59:33.036Z,3.80
2023-02-28T19:01:15.147Z,3.77
2023-02-28T19:02:53.491Z,3.70
2023-02-28T19:04:25.837Z,3.68
2023-02-28T19:05:59.303Z,3.69
2023-02-28T19:07:31.314Z,3.63
2023-02-28T19:09:04.359Z,3.64
2023-02-28T19:10:38.464Z,3.67
2023-02-28T19:12:10.561Z,3.62
2023-02-28T19:13:43.058Z,3.58
2023-02-28T19:15:15.268Z,3.58
2023-02-28T19:16:47.511Z,3.55
2023-02-28T19:18:19.592Z,3.53
2023-02-28T19:19:56.134Z,3.46
2023-02-28T19:21:29.708Z,3.42
2023-02-28T19:23:04.423Z,3.40
2023-02-28T19:24:39.669Z,3.37
2023-02-28T19:26:17.208Z,3.34
2023-02-28T19:27:58.229Z,3.33
2023-02-28T19:29:30.645Z,3.32
2023-02-28T19:31:08.186Z,3.30
2023-02-28T19:32:47.468Z,3.26
2023-02-28T19:34:27.095Z,3.24
2023-02-28T19:36:01.757Z,3.21
2023-02-28T19:37:37.878Z,3.15
2023-02-28T19:39:12.679Z,3.17
2023-02-28T19:40:50.301Z,3.15
2023-02-28T19:42:23.273Z,3.17
2023-02-28T19:43:57.080Z,3.11
2023-02-28T19:45:29.747Z,3.08
2023-02-28T19:47:02.001Z,3.06
2023-02-28T19:48:36.824Z,3.08
2023-02-28T19:50:12.509Z,3.08
2023-02-28T19:51:44.902Z,3.10
2023-02-28T19:53:21.818Z,3.06
2023-02-28T19:54:56.375Z,3.00
2023-02-28T19:56:28.866Z,3.02
2023-02-28T19:58:01.093Z,3.02
2023-02-28T19:59:39.265Z,3.01
2023-02-28T20:01:14.718Z,3.00
2023-02-28T20:02:46.921Z,2.97
2023-02-28T20:04:20.373Z,2.95
2023-02-28T20:06:02.734Z,2.93
2023-02-28T20:07:35.566Z,2.92
2023-02-28T20:09:07.621Z,2.85
2023-02-28T20:10:39.853Z,2.89
2023-02-28T20:12:23.492Z,2.85
2023-02-28T20:13:57.408Z,2.83
2023-02-28T20:15:30.517Z,2.75
2023-02-28T20:17:02.789Z,2.75
2023-02-28T20:18:35.270Z,2.74
2023-02-28T20:20:11.646Z,2.74
2023-02-28T20:21:44.092Z,2.78
2023-02-28T20:23:16.316Z,2.77
2023-02-28T20:25:00.268Z,2.73
2023-02-28T20:26:35.245Z,2.74
2023-02-28T20:28:07.287Z,2.74
2023-02-28T20:29:40.688Z,2.75
2023-02-28T20:31:21.086Z,2.67
2023-02-28T20:32:53.124Z,2.64
2023-02-28T20:34:25.436Z,2.67
2023-02-28T20:36:01.391Z,2.64
2023-02-28T20:37:36.376Z,2.60
2023-02-28T20:39:08.623Z,2.60
2023-02-28T20:40:40.697Z,2.63
2023-02-28T20:42:12.655Z,2.56
2023-02-28T20:43:44.851Z,2.56
2023-02-28T20:45:17.705Z,2.52
2023-02-28T20:46:49.672Z,2.52
2023-02-28T20:48:22.480Z,2.51
2023-02-28T20:49:54.414Z,2.51
2023-02-28T20:51:26.782Z,2.49
2023-02-28T20:52:58.867Z,2.45
2023-02-28T20:54:31.312Z,2.43
2023-02-28T20:56:06.841Z,2.48
2023-02-28T20:57:39.133Z,2.50
2023-02-28T20:59:12.276Z,2.46
2023-02-28T21:00:44.297Z,2.42
2023-02-28T21:02:20.870Z,2.37
2023-02-28T21:03:58.306Z,2.34
2023-02-28T21:05:30.327Z,2.34
2023-02-28T21:07:02.316Z,2.34
2023-02-28T21:08:35.717Z,2.33
2023-02-28T21:10:09.620Z,2.31
2023-02-28T21:11:41.950Z,2.29
2023-02-28T21:13:13.885Z,2.28
2023-02-28T21:14:46.036Z,2.26
2023-02-28T21:16:20.793Z,2.21
2023-02-28T21:17:52.865Z,2.23
2023-02-28T21:19:24.980Z,2.21
2023-02-28T21:21:09.940Z,2.19
2023-02-28T21:22:41.987Z,2.15
2023-02-28T21:24:19.186Z,2.16
2023-02-28T21:25:51.174Z,2.13
2023-02-28T21:27:23.237Z,2.15
2023-02-28T21:28:59.282Z,2.12
2023-02-28T21:30:31.176Z,2.09
2023-02-28T21:32:03.393Z,2.06
2023-02-28T21:33:36.083Z,2.08
2023-02-28T21:35:08.290Z,2.07
2023-02-28T21:36:45.829Z,2.06
2023-02-28T21:38:18.346Z,2.05
2023-02-28T21:39:50.393Z,2.06
2023-02-28T21:41:24.308Z,2.02
2023-02-28T21:42:57.021Z,2.01
2023-02-28T21:44:30.127Z,2.01
2023-02-28T21:46:03.912Z,2.00
2023-02-28T21:47:36.015Z,2.00
2023-02-28T21:49:07.978Z,2.00
2023-02-28T21:50:40.072Z,1.94
2023-02-28T21:52:12.012Z,1.94
2023-02-28T21:53:44.458Z,1.93
2023-02-28T21:55:16.507Z,1.95
2023-02-28T21:56:50.761Z,1.93
2023-02-28T21:58:26.674Z,1.95
2023-02-28T21:59:59.204Z,1.95
2023-02-28T22:01:34.967Z,1.93
2023-02-28T22:03:07.322Z,1.89
2023-02-28T22:04:39.708Z,1.89
2023-02-28T22:06:17.672Z,1.87
2023-02-28T22:07:49.625Z,1.87
2023-02-28T22:09:22.192Z,1.83
2023-02-28T22:10:54.184Z,1.84
2023-02-28T22:12:26.200Z,1.81
2023-02-28T22:13:59.351Z,1.76
2023-02-28T22:15:31.899Z,1.74
2023-02-28T22:17:04.013Z,1.70
2023-02-28T22:18:36.938Z,1.67
2023-02-28T22:20:10.175Z,1.69
2023-02-28T22:21:42.226Z,1.62
2023-02-28T22:23:14.110Z,1.59
2023-02-28T22:24:46.188Z,1.64
2023-02-28T22:26:20.896Z,1.66
2023-02-28T22:27:52.795Z,1.64
2023-02-28T22:29:24.861Z,1.60
2023-02-28T22:30:58.168Z,1.63
2023-02-28T22:32:30.235Z,1.63
2023-02-28T22:34:06.772Z,1.57
2023-02-28T22:35:38.741Z,1.56
2023-02-28T22:37:10.623Z,1.55
2023-02-28T22:38:43.615Z,1.55
2023-02-28T22:40:15.765Z,1.56
2023-02-28T22:41:47.816Z,1.57
2023-02-28T22:43:19.772Z,1.52
2023-02-28T22:44:51.711Z,1.54
2023-02-28T22:46:24.914Z,1.51
2023-02-28T22:47:56.877Z,1.50
2023-02-28T22:49:28.884Z,1.48
2023-02-28T22:51:25.623Z,1.49
2023-02-28T22:52:57.728Z,1.48
2023-02-28T22:54:29.783Z,1.47
2023-02-28T22:56:02.452Z,1.42
2023-02-28T22:57:48.967Z,1.39
2023-02-28T22:59:21.938Z,1.41
2023-02-28T23:00:55.058Z,1.41
2023-02-28T23:02:26.975Z,1.36
2023-02-28T23:03:59.718Z,1.32
2023-02-28T23:05:38.262Z,1.27
2023-02-28T23:07:23.241Z,1.27
2023-02-28T23:09:22.208Z,1.25
2023-02-28T23:10:54.261Z,1.20
2023-02-28T23:12:26.296Z,1.22
2023-02-28T23:14:01.158Z,1.19
2023-02-28T23:15:33.148Z,1.18
2023-02-28T23:17:06.077Z,1.13
2023-02-28T23:18:38.096Z,1.11
2023-02-28T23:20:11.810Z,1.13
2023-02-28T23:21:44.710Z,1.10
2023-02-28T23:23:16.464Z,1.12
2023-02-28T23:24:48.567Z,1.06
2023-02-28T23:26:20.475Z,1.02
2023-02-28T23:27:52.681Z,1.01
2023-02-28T23:29:25.726Z,0.98
2023-02-28T23:31:04.583Z,1.03
2023-02-28T23:32:38.236Z,0.98
2023-02-28T23:34:11.003Z,0.95
2023-02-28T23:35:44.050Z,0.91
2023-02-28T23:37:16.078Z,0.91
2023-02-28T23:38:49.936Z,0.89
2023-02-28T23:40:22.522Z,0.90
2023-02-28T23:41:54.897Z,0.89
2023-02-28T23:43:28.463Z,0.89
2023-02-28T23:45:00.460Z,0.87
2023-02-28T23:46:32.502Z,0.86
2023-02-28T23:48:04.713Z,0.85
2023-02-28T23:49:36.703Z,0.83
2023-02-28T23:51:14.888Z,0.80
2023-02-28T23:52:46.777Z,0.79
2023-02-28T23:54:19.173Z,0.77
2023-02-28T23:55:52.029Z,0.77
2023-02-28T23:57:23.956Z,0.75
2023-02-28T23:58:55.933Z,0.73
